sensor_id;sensor_type;location;lat;lon;timestamp;pressure;altitude;pressure_sealevel;temperature;humidity
31771;BME280;18343;50.152;8.182;2023-04-24T00:00:18;96209.88;;;11.94;100.00
31771;BME280;18343;50.152;8.182;2023-04-24T00:03:04;96211.41;;;12.01;100.00
31771;BME280;18343;50.152;8.182;2023-04-24T00:05:49;96203.34;;;12.01;100.00
31771;BME280;18343;50.152;8.182;2023-04-24T00:08:34;96207.41;;;11.92;100.00
31771;BME280;18343;50.152;8.182;2023-04-24T00:11:19;96203.28;;;11.90;100.00
31771;BME280;18343;50.152;8.182;2023-04-24T00:14:04;96203.28;;;11.90;100.00
31771;BME280;18343;50.152;8.182;2023-04-24T00:16:49;96196.72;;;11.85;100.00
31771;BME280;18343;50.152;8.182;2023-04-24T00:19:35;96193.66;;;11.82;100.00
31771;BME280;18343;50.152;8.182;2023-04-24T00:22:20;96190.59;;;11.78;100.00
31771;BME280;18343;50.152;8.182;2023-04-24T00:25:06;96180.75;;;11.72;100.00
31771;BME280;18343;50.152;8.182;2023-04-24T00:27:51;96181.22;;;11.69;100.00
31771;BME280;18343;50.152;8.182;2023-04-24T00:30:35;96178.34;;;11.52;100.00
31771;BME280;18343;50.152;8.182;2023-04-24T00:33:20;96179.28;;;11.58;100.00
31771;BME280;18343;50.152;8.182;2023-04-24T00:36:07;96181.84;;;11.53;100.00
31771;BME280;18343;50.152;8.182;2023-04-24T00:38:51;96177.75;;;11.50;100.00
31771;BME280;18343;50.152;8.182;2023-04-24T00:41:36;96182.66;;;11.53;100.00
31771;BME280;18343;50.152;8.182;2023-04-24T00:44:21;96178.34;;;11.52;100.00
31771;BME280;18343;50.152;8.182;2023-04-24T00:47:06;96179.97;;;11.53;100.00
31771;BME280;18343;50.152;8.182;2023-04-24T00:49:51;96169.56;;;11.57;100.00
31771;BME280;18343;50.152;8.182;2023-04-24T00:52:38;96148.13;;;11.50;100.00
31771;BME280;18343;50.152;8.182;2023-04-24T00:55:22;96145.31;;;11.45;100.00
31771;BME280;18343;50.152;8.182;2023-04-24T00:58:07;96138.53;;;11.43;100.00
31771;BME280;18343;50.152;8.182;2023-04-24T01:00:53;96133.22;;;11.36;100.00
31771;BME280;18343;50.152;8.182;2023-04-24T01:03:38;96137.56;;;11.37;100.00
31771;BME280;18343;50.152;8.182;2023-04-24T01:06:28;96144.97;;;11.42;100.00
31771;BME280;18343;50.152;8.182;2023-04-24T01:09:15;96148.88;;;11.28;100.00
31771;BME280;18343;50.152;8.182;2023-04-24T01:12:01;96138.25;;;11.33;100.00
31771;BME280;18343;50.152;8.182;2023-04-24T01:14:46;96150.81;;;11.39;100.00
31771;BME280;18343;50.152;8.182;2023-04-24T01:17:30;96154.41;;;11.33;100.00
31771;BME280;18343;50.152;8.182;2023-04-24T01:20:16;96146.91;;;11.35;100.00
31771;BME280;18343;50.152;8.182;2023-04-24T01:23:03;96146.56;;;11.31;100.00
31771;BME280;18343;50.152;8.182;2023-04-24T01:25:49;96151.34;;;11.29;100.00
31771;BME280;18343;50.152;8.182;2023-04-24T01:28:34;96153.56;;;11.21;100.00
31771;BME280;18343;50.152;8.182;2023-04-24T01:31:19;96158.66;;;11.10;100.00
31771;BME280;18343;50.152;8.182;2023-04-24T01:34:04;96156.63;;;11.06;100.00
31771;BME280;18343;50.152;8.182;2023-04-24T01:36:49;96165.06;;;11.09;100.00
31771;BME280;18343;50.152;8.182;2023-04-24T01:39:35;96169.25;;;11.05;100.00
31771;BME280;18343;50.152;8.182;2023-04-24T01:42:20;96179.38;;;11.22;100.00
31771;BME280;18343;50.152;8.182;2023-04-24T01:45:10;96189.25;;;11.28;100.00
31771;BME280;18343;50.152;8.182;2023-04-24T01:47:56;96180.25;;;11.34;100.00
31771;BME280;18343;50.152;8.182;2023-04-24T01:50:40;96182.06;;;11.40;100.00
31771;BME280;18343;50.152;8.182;2023-04-24T01:53:25;96186.63;;;11.39;100.00
31771;BME280;18343;50.152;8.182;2023-04-24T01:56:11;96181.31;;;11.33;100.00
31771;BME280;18343;50.152;8.182;2023-04-24T01:58:56;96184.16;;;11.38;100.00
31771;BME280;18343;50.152;8.182;2023-04-24T02:01:41;96192.66;;;11.35;100.00
31771;BME280;18343;50.152;8.182;2023-04-24T02:04:26;96190.09;;;11.10;100.00
31771;BME280;18343;50.152;8.182;2023-04-24T02:07:11;96188.38;;;10.97;100.00
31771;BME280;18343;50.152;8.182;2023-04-24T02:09:55;96187.13;;;10.81;100.00
31771;BME280;18343;50.152;8.182;2023-04-24T02:12:41;96182.19;;;10.97;100.00
31771;BME280;18343;50.152;8.182;2023-04-24T02:15:26;96172.41;;;11.02;100.00
31771;BME280;18343;50.152;8.182;2023-04-24T02:18:11;96175.09;;;11.02;100.00
31771;BME280;18343;50.152;8.182;2023-04-24T02:20:55;96173.44;;;11.01;100.00
31771;BME280;18343;50.152;8.182;2023-04-24T02:23:40;96177.78;;;11.02;100.00
31771;BME280;18343;50.152;8.182;2023-04-24T02:26:25;96186.75;;;10.96;100.00
31771;BME280;18343;50.152;8.182;2023-04-24T02:29:11;96183.22;;;10.96;100.00
31771;BME280;18343;50.152;8.182;2023-04-24T02:31:56;96183.41;;;10.82;100.00
31771;BME280;18343;50.152;8.182;2023-04-24T02:34:40;96186.91;;;10.83;100.00
31771;BME280;18343;50.152;8.182;2023-04-24T02:37:25;96181.38;;;10.78;100.00
31771;BME280;18343;50.152;8.182;2023-04-24T02:40:10;96191.47;;;10.82;100.00
31771;BME280;18343;50.152;8.182;2023-04-24T02:42:55;96190.72;;;10.75;100.00
31771;BME280;18343;50.152;8.182;2023-04-24T02:45:41;96193.63;;;10.56;100.00
31771;BME280;18343;50.152;8.182;2023-04-24T02:48:26;96190.72;;;10.57;100.00
31771;BME280;18343;50.152;8.182;2023-04-24T02:51:10;96187.00;;;10.58;100.00
31771;BME280;18343;50.152;8.182;2023-04-24T02:53:55;96186.22;;;10.69;100.00
31771;BME280;18343;50.152;8.182;2023-04-24T02:56:39;96179.44;;;10.67;100.00
31771;BME280;18343;50.152;8.182;2023-04-24T02:59:24;96181.19;;;10.61;100.00
31771;BME280;18343;50.152;8.182;2023-04-24T03:02:10;96181.47;;;10.71;100.00
31771;BME280;18343;50.152;8.182;2023-04-24T03:04:55;96180.19;;;10.74;100.00
31771;BME280;18343;50.152;8.182;2023-04-24T03:07:40;96193.25;;;10.70;100.00
31771;BME280;18343;50.152;8.182;2023-04-24T03:10:24;96198.25;;;10.67;100.00
31771;BME280;18343;50.152;8.182;2023-04-24T03:13:09;96192.97;;;10.78;100.00
31771;BME280;18343;50.152;8.182;2023-04-24T03:15:54;96197.75;;;10.76;100.00
31771;BME280;18343;50.152;8.182;2023-04-24T03:18:40;96201.47;;;10.75;100.00
31771;BME280;18343;50.152;8.182;2023-04-24T03:21:25;96203.13;;;10.76;100.00
31771;BME280;18343;50.152;8.182;2023-04-24T03:24:09;96204.75;;;10.77;100.00
31771;BME280;18343;50.152;8.182;2023-04-24T03:26:54;96204.31;;;10.80;100.00
31771;BME280;18343;50.152;8.182;2023-04-24T03:29:38;96199.53;;;10.82;100.00
31771;BME280;18343;50.152;8.182;2023-04-24T03:32:23;96208.72;;;10.75;100.00
31771;BME280;18343;50.152;8.182;2023-04-24T03:35:09;96224.41;;;10.78;100.00
31771;BME280;18343;50.152;8.182;2023-04-24T03:37:54;96220.28;;;10.75;100.00
31771;BME280;18343;50.152;8.182;2023-04-24T03:40:39;96231.59;;;10.41;100.00
31771;BME280;18343;50.152;8.182;2023-04-24T03:43:24;96234.28;;;10.41;100.00
31771;BME280;18343;50.152;8.182;2023-04-24T03:46:08;96240.22;;;10.49;100.00
31771;BME280;18343;50.152;8.182;2023-04-24T03:48:53;96247.72;;;10.41;100.00
31771;BME280;18343;50.152;8.182;2023-04-24T03:51:39;96249.16;;;10.43;100.00
31771;BME280;18343;50.152;8.182;2023-04-24T03:54:23;96247.50;;;10.42;100.00
31771;BME280;18343;50.152;8.182;2023-04-24T03:57:08;96245.84;;;10.41;100.00
31771;BME280;18343;50.152;8.182;2023-04-24T03:59:52;96250.06;;;10.37;100.00
31771;BME280;18343;50.152;8.182;2023-04-24T04:02:37;96249.66;;;10.34;100.00
31771;BME280;18343;50.152;8.182;2023-04-24T04:05:21;96252.66;;;10.19;100.00
31771;BME280;18343;50.152;8.182;2023-04-24T04:08:07;96252.94;;;10.11;100.00
31771;BME280;18343;50.152;8.182;2023-04-24T04:10:52;96248.78;;;9.83;100.00
31771;BME280;18343;50.152;8.182;2023-04-24T04:13:37;96249.22;;;9.80;100.00
31771;BME280;18343;50.152;8.182;2023-04-24T04:16:21;96256.38;;;9.87;100.00
31771;BME280;18343;50.152;8.182;2023-04-24T04:19:06;96259.69;;;9.89;100.00
31771;BME280;18343;50.152;8.182;2023-04-24T04:21:50;96259.69;;;9.89;100.00
31771;BME280;18343;50.152;8.182;2023-04-24T04:24:36;96266.91;;;9.88;100.00
31771;BME280;18343;50.152;8.182;2023-04-24T04:27:21;96261.94;;;9.92;100.00
31771;BME280;18343;50.152;8.182;2023-04-24T04:30:07;96273.28;;;9.94;100.00
31771;BME280;18343;50.152;8.182;2023-04-24T04:32:52;96272.91;;;9.90;100.00
31771;BME280;18343;50.152;8.182;2023-04-24T04:35:36;96282.06;;;9.82;100.00
31771;BME280;18343;50.152;8.182;2023-04-24T04:38:21;96274.69;;;9.71;100.00
31771;BME280;18343;50.152;8.182;2023-04-24T04:41:07;96290.19;;;9.69;100.00
31771;BME280;18343;50.152;8.182;2023-04-24T04:43:51;96291.22;;;9.68;100.00
31771;BME280;18343;50.152;8.182;2023-04-24T04:46:36;96292.13;;;9.56;100.00
31771;BME280;18343;50.152;8.182;2023-04-24T04:49:21;96295.22;;;9.53;100.00
31771;BME280;18343;50.152;8.182;2023-04-24T04:52:05;96293.59;;;9.52;100.00
31771;BME280;18343;50.152;8.182;2023-04-24T04:54:50;96289.25;;;9.50;100.00
31771;BME280;18343;50.152;8.182;2023-04-24T04:57:35;96279.34;;;9.51;100.00
31771;BME280;18343;50.152;8.182;2023-04-24T05:00:22;96276.66;;;9.51;100.00
31771;BME280;18343;50.152;8.182;2023-04-24T05:03:06;96287.59;;;9.49;100.00
31771;BME280;18343;50.152;8.182;2023-04-24T05:05:51;96281.84;;;9.46;100.00
31771;BME280;18343;50.152;8.182;2023-04-24T05:08:36;96294.00;;;9.48;100.00
31771;BME280;18343;50.152;8.182;2023-04-24T05:11:22;96301.88;;;9.37;100.00
31771;BME280;18343;50.152;8.182;2023-04-24T05:14:07;96313.44;;;9.44;100.00
31771;BME280;18343;50.152;8.182;2023-04-24T05:16:52;96310.13;;;9.42;100.00
31771;BME280;18343;50.152;8.182;2023-04-24T05:19:36;96308.47;;;9.47;100.00
31771;BME280;18343;50.152;8.182;2023-04-24T05:22:21;96312.38;;;9.52;100.00
31771;BME280;18343;50.152;8.182;2023-04-24T05:25:06;96320.63;;;9.50;100.00
31771;BME280;18343;50.152;8.182;2023-04-24T05:27:51;96327.03;;;9.49;100.00
31771;BME280;18343;50.152;8.182;2023-04-24T05:30:38;96339.41;;;9.50;100.00
31771;BME280;18343;50.152;8.182;2023-04-24T05:33:22;96341.47;;;9.55;100.00
31771;BME280;18343;50.152;8.182;2023-04-24T05:36:07;96358.19;;;9.50;100.00
31771;BME280;18343;50.152;8.182;2023-04-24T05:38:52;96355.31;;;9.52;100.00
31771;BME280;18343;50.152;8.182;2023-04-24T05:41:36;96361.53;;;9.39;100.00
31771;BME280;18343;50.152;8.182;2023-04-24T05:44:21;96365.22;;;9.44;100.00
31771;BME280;18343;50.152;8.182;2023-04-24T05:47:07;96365.22;;;9.51;100.00
31771;BME280;18343;50.152;8.182;2023-04-24T05:49:52;96372.84;;;9.47;100.00
31771;BME280;18343;50.152;8.182;2023-04-24T05:52:37;96369.94;;;9.56;100.00
31771;BME280;18343;50.152;8.182;2023-04-24T05:55:21;96375.88;;;9.64;100.00
31771;BME280;18343;50.152;8.182;2023-04-24T05:58:06;96377.72;;;9.70;100.00
31771;BME280;18343;50.152;8.182;2023-04-24T06:00:51;96381.25;;;9.64;100.00
31771;BME280;18343;50.152;8.182;2023-04-24T06:03:38;96381.31;;;9.51;100.00
31771;BME280;18343;50.152;8.182;2023-04-24T06:06:24;96386.00;;;9.62;100.00
31771;BME280;18343;50.152;8.182;2023-04-24T06:09:08;96385.97;;;9.75;100.00
31771;BME280;18343;50.152;8.182;2023-04-24T06:11:53;96389.00;;;9.85;100.00
31771;BME280;18343;50.152;8.182;2023-04-24T06:14:37;96396.81;;;9.94;100.00
31771;BME280;18343;50.152;8.182;2023-04-24T06:17:22;96392.63;;;10.11;100.00
31771;BME280;18343;50.152;8.182;2023-04-24T06:20:09;96396.94;;;10.12;100.00
31771;BME280;18343;50.152;8.182;2023-04-24T06:22:54;96396.97;;;10.05;100.00
31771;BME280;18343;50.152;8.182;2023-04-24T06:25:38;96395.34;;;9.98;100.00
31771;BME280;18343;50.152;8.182;2023-04-24T06:28:23;96403.78;;;10.08;100.00
31771;BME280;18343;50.152;8.182;2023-04-24T06:31:07;96397.81;;;10.06;100.00
31771;BME280;18343;50.152;8.182;2023-04-24T06:33:52;96395.56;;;9.96;100.00
31771;BME280;18343;50.152;8.182;2023-04-24T06:36:38;96399.72;;;9.92;100.00
31771;BME280;18343;50.152;8.182;2023-04-24T06:39:23;96394.75;;;9.96;100.00
31771;BME280;18343;50.152;8.182;2023-04-24T06:42:08;96393.38;;;10.25;100.00
31771;BME280;18343;50.152;8.182;2023-04-24T06:44:52;96396.06;;;10.56;100.00
31771;BME280;18343;50.152;8.182;2023-04-24T06:47:37;96403.38;;;10.74;100.00
31771;BME280;18343;50.152;8.182;2023-04-24T06:50:22;96407.88;;;10.80;100.00
31771;BME280;18343;50.152;8.182;2023-04-24T06:53:09;96398.19;;;10.47;100.00
31771;BME280;18343;50.152;8.182;2023-04-24T06:55:53;96398.97;;;10.16;100.00
31771;BME280;18343;50.152;8.182;2023-04-24T06:58:38;96405.75;;;10.32;100.00
31771;BME280;18343;50.152;8.182;2023-04-24T07:01:23;96397.53;;;10.21;100.00
31771;BME280;18343;50.152;8.182;2023-04-24T07:04:08;96402.66;;;10.29;100.00
31771;BME280;18343;50.152;8.182;2023-04-24T07:06:53;96408.75;;;10.42;100.00
31771;BME280;18343;50.152;8.182;2023-04-24T07:09:39;96402.78;;;10.40;100.00
31771;BME280;18343;50.152;8.182;2023-04-24T07:12:23;96404.78;;;10.51;100.00
31771;BME280;18343;50.152;8.182;2023-04-24T07:15:09;96388.28;;;10.73;100.00
31771;BME280;18343;50.152;8.182;2023-04-24T07:17:54;96390.47;;;10.82;100.00
31771;BME280;18343;50.152;8.182;2023-04-24T07:20:38;96376.31;;;10.94;100.00
31771;BME280;18343;50.152;8.182;2023-04-24T07:23:23;96387.16;;;11.05;100.00
31771;BME280;18343;50.152;8.182;2023-04-24T07:26:09;96393.25;;;11.19;100.00
31771;BME280;18343;50.152;8.182;2023-04-24T07:28:54;96394.53;;;11.16;100.00
31771;BME280;18343;50.152;8.182;2023-04-24T07:31:38;96412.13;;;11.37;100.00
31771;BME280;18343;50.152;8.182;2023-04-24T07:34:23;96409.25;;;11.14;100.00
31771;BME280;18343;50.152;8.182;2023-04-24T07:37:07;96418.53;;;11.18;100.00
31771;BME280;18343;50.152;8.182;2023-04-24T07:39:52;96398.94;;;11.29;100.00
31771;BME280;18343;50.152;8.182;2023-04-24T07:42:38;96395.25;;;11.24;100.00
31771;BME280;18343;50.152;8.182;2023-04-24T07:45:23;96391.25;;;11.33;100.00
31771;BME280;18343;50.152;8.182;2023-04-24T07:48:08;96378.97;;;11.18;100.00
31771;BME280;18343;50.152;8.182;2023-04-24T07:50:53;96384.75;;;11.59;100.00
31771;BME280;18343;50.152;8.182;2023-04-24T07:53:38;96384.16;;;11.75;100.00
31771;BME280;18343;50.152;8.182;2023-04-24T07:56:23;96389.16;;;11.71;100.00
31771;BME280;18343;50.152;8.182;2023-04-24T07:59:09;96391.03;;;11.71;100.00
31771;BME280;18343;50.152;8.182;2023-04-24T08:01:54;96396.41;;;11.52;100.00
31771;BME280;18343;50.152;8.182;2023-04-24T08:04:39;96398.91;;;11.11;100.00
31771;BME280;18343;50.152;8.182;2023-04-24T08:07:23;96406.44;;;11.02;100.00
31771;BME280;18343;50.152;8.182;2023-04-24T08:10:10;96411.72;;;10.91;100.00
31771;BME280;18343;50.152;8.182;2023-04-24T08:12:55;96423.75;;;10.88;100.00
31771;BME280;18343;50.152;8.182;2023-04-24T08:15:41;96415.38;;;10.96;100.00
31771;BME280;18343;50.152;8.182;2023-04-24T08:18:25;96424.34;;;11.15;100.00
31771;BME280;18343;50.152;8.182;2023-04-24T08:21:10;96427.91;;;11.09;100.00
31771;BME280;18343;50.152;8.182;2023-04-24T08:23:55;96427.84;;;11.15;100.00
31771;BME280;18343;50.152;8.182;2023-04-24T08:26:39;96433.28;;;11.09;100.00
31771;BME280;18343;50.152;8.182;2023-04-24T08:29:24;96436.84;;;11.28;100.00
31771;BME280;18343;50.152;8.182;2023-04-24T08:32:10;96434.75;;;11.30;100.00
31771;BME280;18343;50.152;8.182;2023-04-24T08:34:55;96441.66;;;11.44;100.00
31771;BME280;18343;50.152;8.182;2023-04-24T08:37:40;96446.66;;;11.40;100.00
31771;BME280;18343;50.152;8.182;2023-04-24T08:40:28;96451.34;;;11.27;100.00
31771;BME280;18343;50.152;8.182;2023-04-24T08:43:13;96439.97;;;11.25;100.00
31771;BME280;18343;50.152;8.182;2023-04-24T08:45:58;96447.84;;;11.01;96.98
31771;BME280;18343;50.152;8.182;2023-04-24T08:48:45;96444.38;;;11.19;99.98
31771;BME280;18343;50.152;8.182;2023-04-24T08:51:31;96454.38;;;11.12;100.00
31771;BME280;18343;50.152;8.182;2023-04-24T08:54:16;96456.06;;;11.06;100.00
31771;BME280;18343;50.152;8.182;2023-04-24T08:57:06;96472.84;;;10.77;100.00
31771;BME280;18343;50.152;8.182;2023-04-24T08:59:52;96474.38;;;10.66;100.00
31771;BME280;18343;50.152;8.182;2023-04-24T09:02:39;96473.56;;;10.14;100.00
31771;BME280;18343;50.152;8.182;2023-04-24T09:05:27;96458.78;;;10.43;100.00
31771;BME280;18343;50.152;8.182;2023-04-24T09:08:13;96466.78;;;10.57;100.00
31771;BME280;18343;50.152;8.182;2023-04-24T09:10:59;96475.44;;;10.21;100.00
31771;BME280;18343;50.152;8.182;2023-04-24T09:13:44;96483.03;;;10.37;100.00
31771;BME280;18343;50.152;8.182;2023-04-24T09:16:29;96485.75;;;10.17;100.00
31771;BME280;18343;50.152;8.182;2023-04-24T09:19:14;96489.16;;;9.93;100.00
31771;BME280;18343;50.152;8.182;2023-04-24T09:22:05;96491.22;;;9.97;100.00
31771;BME280;18343;50.152;8.182;2023-04-24T09:25:01;96491.19;;;10.04;100.00
31771;BME280;18343;50.152;8.182;2023-04-24T09:27:46;96492.13;;;10.36;100.00
31771;BME280;18343;50.152;8.182;2023-04-24T09:30:31;96502.47;;;10.39;100.00
31771;BME280;18343;50.152;8.182;2023-04-24T09:33:16;96496.19;;;10.45;100.00
31771;BME280;18343;50.152;8.182;2023-04-24T09:36:01;96501.72;;;10.12;100.00
31771;BME280;18343;50.152;8.182;2023-04-24T09:38:47;96511.88;;;10.55;100.00
31771;BME280;18343;50.152;8.182;2023-04-24T09:41:33;96514.91;;;10.27;100.00
31771;BME280;18343;50.152;8.182;2023-04-24T09:44:24;96512.00;;;10.28;100.00
31771;BME280;18343;50.152;8.182;2023-04-24T09:47:18;96531.31;;;10.50;100.00
31771;BME280;18343;50.152;8.182;2023-04-24T09:50:11;96528.94;;;10.29;100.00
31771;BME280;18343;50.152;8.182;2023-04-24T09:53:12;96532.44;;;10.36;100.00
31771;BME280;18343;50.152;8.182;2023-04-24T09:56:17;96545.19;;;10.47;100.00
31771;BME280;18343;50.152;8.182;2023-04-24T09:59:18;96548.19;;;10.19;100.00
31771;BME280;18343;50.152;8.182;2023-04-24T10:02:17;96544.22;;;10.35;100.00
31771;BME280;18343;50.152;8.182;2023-04-24T10:05:04;96557.09;;;10.06;100.00
31771;BME280;18343;50.152;8.182;2023-04-24T10:07:57;96561.34;;;10.40;100.00
31771;BME280;18343;50.152;8.182;2023-04-24T10:10:46;96568.16;;;10.43;100.00
31771;BME280;18343;50.152;8.182;2023-04-24T10:13:32;96573.41;;;10.25;100.00
31771;BME280;18343;50.152;8.182;2023-04-24T10:16:21;96566.56;;;10.29;100.00
31771;BME280;18343;50.152;8.182;2023-04-24T10:19:16;96571.25;;;10.46;100.00
31771;BME280;18343;50.152;8.182;2023-04-24T10:22:26;96571.88;;;10.48;100.00
31771;BME280;18343;50.152;8.182;2023-04-24T10:25:16;96574.97;;;10.45;100.00
31771;BME280;18343;50.152;8.182;2023-04-24T10:28:04;96575.53;;;10.61;100.00
31771;BME280;18343;50.152;8.182;2023-04-24T10:31:06;96561.00;;;11.06;100.00
31771;BME280;18343;50.152;8.182;2023-04-24T10:33:58;96573.34;;;10.89;100.00
31771;BME280;18343;50.152;8.182;2023-04-24T10:36:51;96567.06;;;10.95;100.00
31771;BME280;18343;50.152;8.182;2023-04-24T10:39:43;96573.25;;;10.96;100.00
31771;BME280;18343;50.152;8.182;2023-04-24T10:42:35;96571.34;;;10.71;100.00
31771;BME280;18343;50.152;8.182;2023-04-24T10:45:24;96580.13;;;10.54;100.00
31771;BME280;18343;50.152;8.182;2023-04-24T10:48:33;96581.34;;;10.58;100.00
31771;BME280;18343;50.152;8.182;2023-04-24T10:51:18;96576.34;;;10.99;100.00
31771;BME280;18343;50.152;8.182;2023-04-24T10:54:26;96574.31;;;10.95;100.00
31771;BME280;18343;50.152;8.182;2023-04-24T10:57:28;96584.41;;;10.99;100.00
31771;BME280;18343;50.152;8.182;2023-04-24T11:00:21;96575.91;;;11.02;100.00
31771;BME280;18343;50.152;8.182;2023-04-24T11:03:50;96589.47;;;10.89;100.00
31771;BME280;18343;50.152;8.182;2023-04-24T11:06:48;96597.09;;;10.41;100.00
31771;BME280;18343;50.152;8.182;2023-04-24T11:09:36;96603.38;;;10.22;100.00
31771;BME280;18343;50.152;8.182;2023-04-24T11:12:36;96588.84;;;10.87;100.00
31771;BME280;18343;50.152;8.182;2023-04-24T11:15:24;96586.28;;;10.99;100.00
31771;BME280;18343;50.152;8.182;2023-04-24T11:18:20;96585.81;;;11.40;100.00
31771;BME280;18343;50.152;8.182;2023-04-24T11:21:27;96590.16;;;11.66;100.00
31771;BME280;18343;50.152;8.182;2023-04-24T11:24:27;96589.97;;;12.10;100.00
31771;BME280;18343;50.152;8.182;2023-04-24T11:30:30;96598.53;;;12.26;100.00
31771;BME280;18343;50.152;8.182;2023-04-24T11:33:38;96605.03;;;11.75;100.00
31771;BME280;18343;50.152;8.182;2023-04-24T11:36:25;96604.69;;;11.90;100.00
31771;BME280;18343;50.152;8.182;2023-04-24T11:39:18;96611.66;;;11.72;100.00
31771;BME280;18343;50.152;8.182;2023-04-24T11:42:07;96608.09;;;11.78;100.00
31771;BME280;18343;50.152;8.182;2023-04-24T11:44:55;96607.75;;;11.68;100.00
31771;BME280;18343;50.152;8.182;2023-04-24T11:47:42;96611.56;;;11.85;100.00
31771;BME280;18343;50.152;8.182;2023-04-24T11:50:30;96602.97;;;11.45;100.00
31771;BME280;18343;50.152;8.182;2023-04-24T11:53:27;96611.69;;;11.41;100.00
31771;BME280;18343;50.152;8.182;2023-04-24T11:56:19;96630.78;;;11.33;98.50
31771;BME280;18343;50.152;8.182;2023-04-24T11:59:08;96615.31;;;11.22;100.00
31771;BME280;18343;50.152;8.182;2023-04-24T12:01:53;96620.47;;;11.30;100.00
31771;BME280;18343;50.152;8.182;2023-04-24T12:04:42;96628.13;;;11.26;100.00
31771;BME280;18343;50.152;8.182;2023-04-24T12:07:29;96629.13;;;11.00;99.47
31771;BME280;18343;50.152;8.182;2023-04-24T12:10:27;96627.91;;;11.28;98.45
31771;BME280;18343;50.152;8.182;2023-04-24T12:13:15;96620.66;;;11.60;98.01
31771;BME280;18343;50.152;8.182;2023-04-24T12:16:04;96629.22;;;11.81;97.85
31771;BME280;18343;50.152;8.182;2023-04-24T12:18:57;96630.25;;;11.49;96.01
31771;BME280;18343;50.152;8.182;2023-04-24T12:22:14;96630.00;;;11.89;95.57
31771;BME280;18343;50.152;8.182;2023-04-24T12:25:03;96634.50;;;11.95;95.35
31771;BME280;18343;50.152;8.182;2023-04-24T12:27:57;96629.88;;;11.77;94.10
31771;BME280;18343;50.152;8.182;2023-04-24T12:30:59;96635.78;;;12.10;93.86
31771;BME280;18343;50.152;8.182;2023-04-24T12:33:53;96642.44;;;12.69;93.79
31771;BME280;18343;50.152;8.182;2023-04-24T12:36:42;96644.88;;;12.89;91.59
31771;BME280;18343;50.152;8.182;2023-04-24T12:39:27;96643.38;;;13.11;90.67
31771;BME280;18343;50.152;8.182;2023-04-24T12:42:12;96653.28;;;13.17;89.83
31771;BME280;18343;50.152;8.182;2023-04-24T12:45:06;96660.06;;;13.38;89.00
31771;BME280;18343;50.152;8.182;2023-04-24T12:48:13;96648.91;;;13.16;85.20
31771;BME280;18343;50.152;8.182;2023-04-24T12:51:08;96653.38;;;12.74;87.11
31771;BME280;18343;50.152;8.182;2023-04-24T12:54:05;96666.34;;;12.66;85.68
31771;BME280;18343;50.152;8.182;2023-04-24T12:56:54;96684.44;;;11.97;87.54
31771;BME280;18343;50.152;8.182;2023-04-24T12:59:43;96681.09;;;12.02;89.95
31771;BME280;18343;50.152;8.182;2023-04-24T13:02:38;96675.22;;;12.30;88.63
31771;BME280;18343;50.152;8.182;2023-04-24T13:05:24;96674.03;;;12.26;88.58
31771;BME280;18343;50.152;8.182;2023-04-24T13:08:09;96674.97;;;12.56;88.73
31771;BME280;18343;50.152;8.182;2023-04-24T13:10:54;96671.13;;;12.45;87.85
31771;BME280;18343;50.152;8.182;2023-04-24T13:13:42;96671.94;;;12.64;88.09
31771;BME280;18343;50.152;8.182;2023-04-24T13:16:31;96678.09;;;12.89;87.56
31771;BME280;18343;50.152;8.182;2023-04-24T13:19:21;96678.84;;;12.97;87.06
31771;BME280;18343;50.152;8.182;2023-04-24T13:22:13;96677.94;;;13.03;87.41
31771;BME280;18343;50.152;8.182;2023-04-24T13:25:05;96679.03;;;13.13;88.48
31771;BME280;18343;50.152;8.182;2023-04-24T13:27:53;96677.22;;;13.44;89.89
31771;BME280;18343;50.152;8.182;2023-04-24T13:30:50;96672.09;;;13.54;88.65
31771;BME280;18343;50.152;8.182;2023-04-24T13:33:52;96677.72;;;13.52;87.96
31771;BME280;18343;50.152;8.182;2023-04-24T13:36:41;96676.38;;;13.43;85.99
31771;BME280;18343;50.152;8.182;2023-04-24T13:39:33;96664.91;;;13.48;85.70
31771;BME280;18343;50.152;8.182;2023-04-24T13:42:18;96669.31;;;13.31;84.66
31771;BME280;18343;50.152;8.182;2023-04-24T13:48:14;96665.25;;;13.21;83.79
31771;BME280;18343;50.152;8.182;2023-04-24T13:51:13;96667.13;;;13.39;86.49
31771;BME280;18343;50.152;8.182;2023-04-24T13:54:05;96665.47;;;13.38;83.91
31771;BME280;18343;50.152;8.182;2023-04-24T13:56:55;96667.66;;;13.30;84.05
31771;BME280;18343;50.152;8.182;2023-04-24T13:59:45;96665.69;;;13.37;83.20
31771;BME280;18343;50.152;8.182;2023-04-24T14:02:39;96667.28;;;12.89;81.56
31771;BME280;18343;50.152;8.182;2023-04-24T14:05:32;96651.56;;;12.86;81.32
31771;BME280;18343;50.152;8.182;2023-04-24T14:08:22;96661.31;;;13.06;81.96
31771;BME280;18343;50.152;8.182;2023-04-24T14:11:09;96661.66;;;13.28;80.82
31771;BME280;18343;50.152;8.182;2023-04-24T14:13:55;96652.28;;;13.30;79.40
31771;BME280;18343;50.152;8.182;2023-04-24T14:16:47;96658.88;;;13.34;76.94
31771;BME280;18343;50.152;8.182;2023-04-24T14:19:35;96651.75;;;13.40;76.58
31771;BME280;18343;50.152;8.182;2023-04-24T14:22:53;96650.66;;;13.82;78.16
31771;BME280;18343;50.152;8.182;2023-04-24T14:25:45;96645.66;;;14.09;76.44
31771;BME280;18343;50.152;8.182;2023-04-24T14:28:33;96655.88;;;14.07;74.45
31771;BME280;18343;50.152;8.182;2023-04-24T14:31:26;96650.22;;;14.09;73.57
31771;BME280;18343;50.152;8.182;2023-04-24T14:34:19;96658.63;;;13.77;71.21
31771;BME280;18343;50.152;8.182;2023-04-24T14:37:10;96653.69;;;13.74;72.05
31771;BME280;18343;50.152;8.182;2023-04-24T14:40:09;96664.72;;;13.61;71.84
31771;BME280;18343;50.152;8.182;2023-04-24T14:43:00;96670.56;;;13.58;72.37
31771;BME280;18343;50.152;8.182;2023-04-24T14:46:06;96674.56;;;13.26;71.62